Time;durP1;ratioP1;P1;durP2;ratioP2;P2;SDS_P1;SDS_P2;PMS_P1;PMS_P2;Temp;Humidity;BMP_temperature;BMP_pressure;BME280_temperature;BME280_humidity;BME280_pressure;Samples;Min_cycle;Max_cycle;Signal;HPM_P1;HPM_P2
2021/07/08 00:02:21;;;;;;;13.15;8.65;;;691.80;1715.20;;;;;;5070214;28;20498;-78
2021/07/08 00:04:53;;;;;;;12.48;8.13;;;691.80;1715.20;;;;;;5068921;28;20030;-78
2021/07/08 00:07:30;;;;;;;17.58;10.02;;;691.80;1740.80;;;;;;5059977;28;20033;-79
2021/07/08 00:09:57;;;;;;;15.77;9.05;;;691.80;1740.80;;;;;;5060345;28;20484;-78
2021/07/08 00:12:29;;;;;;;14.50;8.55;;;691.70;1766.40;;;;;;5066242;28;20154;-77
2021/07/08 00:14:54;;;;;;;17.20;8.18;;;691.70;1766.40;;;;;;5064812;28;20044;-78
2021/07/08 00:17:20;;;;;;;12.88;9.18;;;691.70;1792.00;;;;;;5063914;28;20444;-78
2021/07/08 00:19:52;;;;;;;15.30;8.75;;;691.70;1817.60;;;;;;5052958;28;20579;-78
2021/07/08 00:22:36;;;;;;;13.57;8.82;;;691.50;1817.60;;;;;;5073953;28;20406;-78
2021/07/08 00:25:13;;;;;;;10.60;8.38;;;691.50;1817.60;;;;;;5059632;28;20032;-78
2021/07/08 00:27:55;;;;;;;17.13;9.32;;;691.50;1843.20;;;;;;5057361;28;20033;-78
2021/07/08 00:30:23;;;;;;;19.80;8.60;;;691.50;1843.20;;;;;;5081473;28;20119;-79
2021/07/08 00:32:55;;;;;;;10.63;7.80;;;691.50;1843.20;;;;;;5080991;28;20039;-78
2021/07/08 00:35:27;;;;;;;16.10;9.07;;;691.50;1868.80;;;;;;5063007;28;20028;-79
2021/07/08 00:37:59;;;;;;;12.90;8.95;;;691.50;1868.80;;;;;;5081251;28;20024;-78
2021/07/08 00:40:25;;;;;;;12.90;9.40;;;691.50;1868.80;;;;;;5075201;28;20052;-78
2021/07/08 00:42:51;;;;;;;16.05;8.10;;;691.50;1868.80;;;;;;5067694;28;20046;-78
2021/07/08 00:45:19;;;;;;;13.95;9.13;;;691.50;1868.80;;;;;;5076179;28;20383;-79
2021/07/08 00:47:48;;;;;;;15.85;9.02;;;691.50;1894.40;;;;;;5064538;28;20037;-79
2021/07/08 00:50:48;;;;;;;11.98;8.98;;;691.50;1894.40;;;;;;5069045;28;20534;-79
2021/07/08 00:53:18;;;;;;;15.10;8.93;;;691.50;1894.40;;;;;;5075120;28;20029;-80
2021/07/08 00:56:05;;;;;;;11.10;8.73;;;691.40;1920.00;;;;;;5083949;28;20031;-79
2021/07/08 00:58:39;;;;;;;15.75;8.30;;;691.40;1920.00;;;;;;5078714;28;20127;-79
2021/07/08 01:01:09;;;;;;;14.32;10.02;;;691.40;1945.60;;;;;;5064335;28;20020;-79
2021/07/08 01:03:35;;;;;;;16.80;9.88;;;691.40;1945.60;;;;;;5086916;28;20055;-78
2021/07/08 01:06:01;;;;;;;16.33;9.50;;;691.40;1945.60;;;;;;5055778;28;20784;-79
2021/07/08 01:08:28;;;;;;;12.52;8.98;;;691.40;1971.20;;;;;;5073592;28;20021;-79
2021/07/08 01:10:54;;;;;;;13.60;9.55;;;691.40;1971.20;;;;;;5087807;28;20024;-79
2021/07/08 01:13:21;;;;;;;15.20;9.15;;;691.40;1971.20;;;;;;5065874;28;20551;-78
2021/07/08 01:15:53;;;;;;;13.85;9.77;;;691.40;1971.20;;;;;;5076371;28;20028;-78
2021/07/08 01:18:20;;;;;;;17.70;9.73;;;691.40;1971.20;;;;;;5059890;28;20541;-78
2021/07/08 01:20:46;;;;;;;15.18;9.32;;;691.40;1996.80;;;;;;5076739;28;20463;-79
2021/07/08 01:23:43;;;;;;;15.88;10.25;;;691.40;1996.80;;;;;;5061500;28;20052;-79
2021/07/08 01:26:21;;;;;;;15.25;10.07;;;691.40;1996.80;;;;;;5081354;28;20016;-78
2021/07/08 01:28:56;;;;;;;18.85;9.75;;;691.40;1996.80;;;;;;5078247;28;20109;-78
2021/07/08 01:31:32;;;;;;;17.27;9.95;;;691.30;1996.80;;;;;;5073620;28;20028;-78
2021/07/08 01:34:22;;;;;;;17.80;10.35;;;691.20;2022.40;;;;;;5082088;28;20028;-78
2021/07/08 01:36:54;;;;;;;18.35;10.63;;;691.20;2022.40;;;;;;5085183;28;20059;-78
2021/07/08 01:39:23;;;;;;;19.48;11.45;;;691.30;2022.40;;;;;;5075094;28;20020;-79
2021/07/08 01:41:49;;;;;;;15.32;10.40;;;691.20;2022.40;;;;;;5089208;28;20020;-78
2021/07/08 01:44:33;;;;;;;16.20;11.15;;;691.20;2022.40;;;;;;5054488;28;20032;-78
2021/07/08 01:46:59;;;;;;;16.80;12.35;;;691.20;2022.40;;;;;;5077349;28;20035;-79
2021/07/08 01:49:28;;;;;;;18.13;10.07;;;691.20;2022.40;;;;;;5064720;28;20029;-79
2021/07/08 01:51:57;;;;;;;17.10;11.93;;;691.20;2022.40;;;;;;5071125;28;20059;-78
2021/07/08 01:54:22;;;;;;;16.83;11.27;;;691.20;2022.40;;;;;;5081452;28;20027;-78
2021/07/08 01:56:48;;;;;;;20.23;12.20;;;691.20;2022.40;;;;;;5077876;28;20059;-78
2021/07/08 01:59:29;;;;;;;18.80;12.48;;;666.50;2022.40;;;;;;5055949;28;20031;-79
2021/07/08 02:02:01;;;;;;;14.85;10.50;;;666.50;2048.00;;;;;;5072567;28;20074;-79
2021/07/08 02:04:26;;;;;;;18.40;12.23;;;666.50;2048.00;;;;;;5073280;28;20025;-79
2021/07/08 02:06:59;;;;;;;19.70;11.48;;;666.50;2048.00;;;;;;5085032;28;20036;-79
2021/07/08 02:09:42;;;;;;;15.73;10.63;;;666.30;2048.00;;;;;;5067951;28;20028;-78
2021/07/08 02:12:10;;;;;;;19.02;12.38;;;666.30;2048.00;;;;;;5073660;28;20063;-78
2021/07/08 02:15:03;;;;;;;20.48;12.48;;;666.30;2073.60;;;;;;5074135;28;20492;-79
2021/07/08 02:17:32;;;;;;;18.77;10.02;;;666.30;2099.20;;;;;;5057806;28;20027;-79
2021/07/08 02:19:58;;;;;;;23.92;11.35;;;666.30;2099.20;;;;;;5081466;28;20370;-79
2021/07/08 02:22:24;;;;;;;28.35;13.02;;;666.20;2124.80;;;;;;5077940;28;20024;-79
2021/07/08 02:24:52;;;;;;;24.85;12.60;;;666.20;2124.80;;;;;;5055155;28;20028;-79
2021/07/08 02:27:21;;;;;;;20.38;11.73;;;666.20;2124.80;;;;;;5072383;28;20039;-79
2021/07/08 02:29:47;;;;;;;21.92;12.02;;;666.20;2150.40;;;;;;5087986;28;20052;-79
2021/07/08 02:32:12;;;;;;;17.00;11.88;;;666.10;2150.40;;;;;;5074458;28;20031;-79
2021/07/08 02:34:41;;;;;;;23.52;11.27;;;666.10;2176.00;;;;;;5059492;28;20025;-78
2021/07/08 02:37:17;;;;;;;18.23;10.80;;;665.90;2176.00;;;;;;5072053;28;20044;-78
2021/07/08 02:39:49;;;;;;;17.33;11.77;;;665.90;2176.00;;;;;;5068237;28;20161;-78
2021/07/08 02:42:15;;;;;;;17.25;12.25;;;665.90;2201.60;;;;;;5062821;28;20527;-78
2021/07/08 02:44:47;;;;;;;19.27;12.07;;;665.80;2201.60;;;;;;5065308;28;20123;-77
2021/07/08 02:47:15;;;;;;;14.75;11.57;;;665.80;2227.20;;;;;;5065544;28;20067;-78
2021/07/08 02:49:41;;;;;;;15.63;11.23;;;665.80;2227.20;;;;;;5068792;28;20028;-78
2021/07/08 02:52:16;;;;;;;12.35;10.50;;;665.80;2227.20;;;;;;5087604;28;20032;-79
2021/07/08 02:55:10;;;;;;;15.80;11.25;;;665.80;2252.80;;;;;;5064854;28;20024;-79
2021/07/08 02:57:36;;;;;;;14.02;10.95;;;665.70;2252.80;;;;;;5060917;28;20060;-79
2021/07/08 03:00:24;;;;;;;13.45;10.13;;;665.70;2252.80;;;;;;5085091;28;20048;-78
2021/07/08 03:03:18;;;;;;;14.25;9.80;;;665.60;2252.80;;;;;;5054013;28;20473;-79
2021/07/08 03:05:49;;;;;;;12.38;8.57;;;665.60;2227.20;;;;;;5071760;28;20031;-79
2021/07/08 03:08:18;;;;;;;13.98;8.85;;;640.80;2201.60;;;;;;5069541;28;20047;-78
2021/07/08 03:10:50;;;;;;;13.27;9.10;;;640.80;2201.60;;;;;;5069024;28;20383;-78
2021/07/08 03:13:15;;;;;;;14.93;10.35;;;640.80;2201.60;;;;;;5076797;28;20028;-77
2021/07/08 03:15:44;;;;;;;14.32;8.82;;;640.70;2201.60;;;;;;5053449;28;20499;-78
2021/07/08 03:18:10;;;;;;;15.70;9.82;;;640.70;2201.60;;;;;;5067711;28;20171;-78
2021/07/08 03:20:39;;;;;;;11.40;9.57;;;640.70;2201.60;;;;;;5068058;28;20033;-78
2021/07/08 03:23:10;;;;;;;12.07;9.75;;;640.60;2201.60;;;;;;5071329;28;20580;-78
2021/07/08 03:25:42;;;;;;;11.93;9.65;;;640.60;2201.60;;;;;;5076743;28;20111;-78
2021/07/08 03:28:14;;;;;;;10.70;8.90;;;640.60;2201.60;;;;;;5080585;28;20059;-77
2021/07/08 03:31:01;;;;;;;15.98;8.95;;;640.60;2201.60;;;;;;5050173;28;20407;-78
2021/07/08 03:33:33;;;;;;;10.23;8.43;;;640.60;2201.60;;;;;;5045513;28;20025;-78
2021/07/08 03:35:59;;;;;;;12.15;8.98;;;640.60;2201.60;;;;;;5031611;28;20029;-78
2021/07/08 03:38:24;;;;;;;14.07;8.43;;;640.60;2201.60;;;;;;5034617;28;20033;-78
2021/07/08 03:40:53;;;;;;;16.50;9.57;;;640.60;2201.60;;;;;;5035595;28;20031;-79
2021/07/08 03:43:25;;;;;;;10.43;8.57;;;640.70;2201.60;;;;;;5045242;28;20030;-78
2021/07/08 03:45:54;;;;;;;13.65;8.88;;;640.70;2201.60;;;;;;5042757;28;20025;-78
2021/07/08 03:48:35;;;;;;;14.35;8.75;;;640.70;2201.60;;;;;;5033979;28;20041;-78
2021/07/08 03:51:16;;;;;;;15.07;8.43;;;640.70;2201.60;;;;;;5031328;28;20049;-78
2021/07/08 03:53:48;;;;;;;14.10;8.15;;;640.70;2201.60;;;;;;5049669;28;20032;-78
2021/07/08 03:56:16;;;;;;;14.20;8.80;;;640.80;2201.60;;;;;;5049436;28;20032;-78
2021/07/08 03:58:45;;;;;;;10.95;8.20;;;640.80;2201.60;;;;;;5043541;28;20026;-78
2021/07/08 04:01:11;;;;;;;13.77;9.43;;;640.90;2176.00;;;;;;5035921;28;20040;-77
2021/07/08 04:03:37;;;;;;;12.27;8.50;;;665.60;2227.20;;;;;;5043873;28;20026;-78
2021/07/08 04:06:08;;;;;;;50.20;39.53;;;665.60;2201.60;;;;;;5042376;28;20029;-77
2021/07/08 04:08:40;;;;;;;23.50;15.85;;;665.70;2201.60;;;;;;5046557;28;20039;-76
2021/07/08 04:11:08;;;;;;;42.17;29.27;;;665.80;2201.60;;;;;;5045120;28;20027;-77
2021/07/08 04:13:40;;;;;;;36.13;29.00;;;665.80;2201.60;;;;;;5041475;28;20033;-77
2021/07/08 04:16:09;;;;;;;15.35;11.88;;;666.00;2201.60;;;;;;5041479;28;20036;-77
2021/07/08 04:18:35;;;;;;;15.27;8.88;;;666.10;2201.60;;;;;;5059361;28;20052;-78
2021/07/08 04:21:01;;;;;;;13.15;7.85;;;666.00;2201.60;;;;;;5045621;28;20380;-78
2021/07/08 04:23:26;;;;;;;30.05;25.20;;;666.10;2201.60;;;;;;5055061;28;20075;-77
2021/07/08 04:25:52;;;;;;;32.30;27.88;;;666.20;2201.60;;;;;;5053332;28;20022;-77
2021/07/08 04:28:18;;;;;;;22.65;19.73;;;666.30;2176.00;;;;;;5042825;28;20029;-78
2021/07/08 04:30:53;;;;;;;17.08;13.93;;;666.50;2176.00;;;;;;5082449;28;20032;-77
2021/07/08 04:33:22;;;;;;;10.52;9.13;;;666.50;2176.00;;;;;;5067061;28;20032;-79
2021/07/08 04:35:53;;;;;;;10.65;8.63;;;691.40;2176.00;;;;;;5083007;28;20035;-77
2021/07/08 04:38:22;;;;;;;11.15;8.63;;;691.50;2150.40;;;;;;5072917;28;20028;-78
2021/07/08 04:40:54;;;;;;;17.70;9.38;;;691.80;2150.40;;;;;;5081740;28;20020;-77
2021/07/08 04:43:35;;;;;;;14.15;9.32;;;691.90;2124.80;;;;;;5078860;28;20080;-77
2021/07/08 04:46:04;;;;;;;15.93;8.77;;;716.80;2124.80;;;;;;5075871;28;20036;-78
2021/07/08 04:48:32;;;;;;;12.18;9.05;;;716.90;2124.80;;;;;;5070508;28;20028;-78
2021/07/08 04:51:04;;;;;;;21.48;10.90;;;716.90;2124.80;;;;;;5056119;28;20031;-78
2021/07/08 04:53:36;;;;;;;29.27;12.38;;;717.00;2124.80;;;;;;5081213;28;20111;-78
2021/07/08 04:56:05;;;;;;;31.30;11.13;;;717.10;2124.80;;;;;;5059316;28;20025;-77
2021/07/08 04:58:37;;;;;;;28.13;12.27;;;717.30;2099.20;;;;;;5084578;28;20029;-77
2021/07/08 05:01:13;;;;;;;31.45;11.15;;;717.50;2099.20;;;;;;5072346;28;20019;-78
2021/07/08 05:03:39;;;;;;;18.25;10.00;;;717.50;2099.20;;;;;;5064453;28;20028;-77
2021/07/08 05:06:08;;;;;;;23.20;10.05;;;717.70;2073.60;;;;;;5055512;28;20028;-78
2021/07/08 05:08:49;;;;;;;23.50;11.38;;;717.70;2073.60;;;;;;5061398;28;20032;-78
2021/07/08 05:11:29;;;;;;;20.00;11.30;;;742.50;2099.20;;;;;;5087121;28;20281;-78
2021/07/08 05:13:58;;;;;;;29.60;12.77;;;742.70;2073.60;;;;;;5081983;28;20372;-78
2021/07/08 05:16:24;;;;;;;18.50;10.75;;;743.00;2048.00;;;;;;5063705;28;20440;-78
2021/07/08 05:18:49;;;;;;;20.23;10.68;;;743.20;2022.40;;;;;;5061985;28;20027;-79
2021/07/08 05:21:15;;;;;;;17.42;9.82;;;743.30;2022.40;;;;;;5079246;28;20112;-78
2021/07/08 05:23:41;;;;;;;14.38;10.13;;;768.10;1996.80;;;;;;5081315;28;20020;-78
2021/07/08 05:26:07;;;;;;;14.60;9.90;;;768.20;1971.20;;;;;;5083377;28;20021;-77
2021/07/08 05:28:36;;;;;;;15.23;10.68;;;768.30;1971.20;;;;;;5054443;28;20049;-76
2021/07/08 05:31:02;;;;;;;14.88;10.80;;;768.50;1945.60;;;;;;5063996;28;20097;-77
2021/07/08 05:33:43;;;;;;;12.45;8.77;;;768.70;1945.60;;;;;;5078680;28;20483;-77
2021/07/08 05:36:21;;;;;;;14.52;9.88;;;768.80;1920.00;;;;;;5069418;28;20070;-78
2021/07/08 05:38:46;;;;;;;13.88;11.52;;;793.60;1945.60;;;;;;5074557;28;20107;-77
2021/07/08 05:41:12;;;;;;;12.30;9.55;;;793.70;1920.00;;;;;;5068110;28;20527;-78
2021/07/08 05:43:38;;;;;;;12.73;10.18;;;794.00;1920.00;;;;;;5082916;28;20051;-77
2021/07/08 05:46:04;;;;;;;15.35;10.05;;;794.10;1894.40;;;;;;5068756;28;20028;-77
2021/07/08 05:48:44;;;;;;;14.00;10.18;;;794.30;1868.80;;;;;;5079845;28;20028;-77
2021/07/08 05:51:35;;;;;;;13.15;10.80;;;794.50;1868.80;;;;;;5082496;28;20035;-77
2021/07/08 05:54:13;;;;;;;15.02;9.95;;;819.20;1868.80;;;;;;5068924;28;20481;-77
2021/07/08 05:56:54;;;;;;;13.35;9.57;;;819.30;1868.80;;;;;;5079609;28;20433;-77
2021/07/08 05:59:28;;;;;;;13.93;9.88;;;819.50;1843.20;;;;;;5071941;28;20745;-78
2021/07/08 06:01:54;;;;;;;13.17;9.23;;;819.70;1843.20;;;;;;5055697;28;20039;-78
2021/07/08 06:04:20;;;;;;;11.95;8.93;;;819.70;1817.60;;;;;;5078149;28;20028;-78
2021/07/08 06:06:46;;;;;;;13.02;9.02;;;819.90;1817.60;;;;;;5079396;28;20085;-77
2021/07/08 06:09:14;;;;;;;13.00;10.00;;;820.00;1817.60;;;;;;5076781;28;20043;-77
2021/07/08 06:11:40;;;;;;;16.15;10.27;;;844.80;1843.20;;;;;;5073308;28;20027;-77
2021/07/08 06:14:09;;;;;;;18.80;10.77;;;845.10;1817.60;;;;;;5076264;28;20020;-77
2021/07/08 06:16:38;;;;;;;12.18;9.10;;;845.10;1817.60;;;;;;5074436;28;20499;-77
2021/07/08 06:19:28;;;;;;;13.98;10.23;;;845.30;1792.00;;;;;;5071399;28;20048;-77
2021/07/08 06:22:00;;;;;;;14.43;9.27;;;845.50;1792.00;;;;;;5055095;28;20416;-77
2021/07/08 06:24:28;;;;;;;12.35;8.57;;;845.50;1766.40;;;;;;5085640;28;20395;-78
2021/07/08 06:27:03;;;;;;;16.95;9.15;;;870.40;1740.80;;;;;;5062304;28;20414;-77
2021/07/08 06:29:29;;;;;;;11.35;9.25;;;870.70;1740.80;;;;;;5077865;28;20071;-77
2021/07/08 06:31:55;;;;;;;11.85;9.80;;;870.90;1740.80;;;;;;5059944;28;20054;-77
2021/07/08 06:34:20;;;;;;;11.40;9.57;;;870.90;1715.20;;;;;;5092289;28;20032;-77
2021/07/08 06:36:53;;;;;;;13.27;8.50;;;870.90;1689.60;;;;;;5055555;28;20040;-77
2021/07/08 06:39:18;;;;;;;13.15;9.95;;;871.10;1689.60;;;;;;5074050;28;20020;-77
2021/07/08 06:41:44;;;;;;;12.93;9.88;;;871.20;1689.60;;;;;;5075461;28;20040;-77
2021/07/08 06:44:10;;;;;;;16.33;9.88;;;871.30;1664.00;;;;;;5073948;28;20054;-77
2021/07/08 06:46:49;;;;;;;12.52;9.07;;;896.10;1664.00;;;;;;5071961;28;20356;-78
2021/07/08 06:49:14;;;;;;;13.30;9.60;;;896.30;1638.40;;;;;;5080756;28;20020;-78
2021/07/08 06:52:17;;;;;;;12.20;9.27;;;896.30;1612.80;;;;;;5073806;28;20042;-77
2021/07/08 06:54:46;;;;;;;13.68;9.88;;;896.50;1612.80;;;;;;5064017;28;20024;-78
2021/07/08 06:57:11;;;;;;;12.25;9.57;;;896.40;1612.80;;;;;;5084320;28;20408;-78
2021/07/08 06:59:37;;;;;;;11.35;9.57;;;896.80;1587.20;;;;;;5069838;28;20165;-77
2021/07/08 07:02:16;;;;;;;11.15;9.52;;;921.70;1587.20;;;;;;5074399;28;20029;-77
2021/07/08 07:04:47;;;;;;;13.07;9.40;;;922.00;1587.20;;;;;;5064353;28;20047;-77
2021/07/08 07:07:16;;;;;;;12.65;9.48;;;922.00;1587.20;;;;;;5086131;28;20032;-77
2021/07/08 07:09:45;;;;;;;12.07;10.32;;;921.80;1587.20;;;;;;5058767;28;20368;-77
2021/07/08 07:12:10;;;;;;;11.10;8.55;;;922.00;1561.60;;;;;;5081159;28;20029;-77
2021/07/08 07:14:58;;;;;;;13.23;10.15;;;922.10;1561.60;;;;;;5067454;28;20513;-77
2021/07/08 07:17:24;;;;;;;14.57;10.43;;;922.30;1536.00;;;;;;5071465;28;20481;-76
2021/07/08 07:19:55;;;;;;;17.40;10.70;;;922.40;1536.00;;;;;;5085559;28;20073;-76
2021/07/08 07:22:27;;;;;;;14.52;10.63;;;922.40;1510.40;;;;;;5057036;28;20032;-77
2021/07/08 07:24:59;;;;;;;15.55;10.35;;;947.20;1510.40;;;;;;5077340;28;20414;-76
2021/07/08 07:27:28;;;;;;;14.98;10.70;;;947.20;1510.40;;;;;;5073831;28;20122;-76
2021/07/08 07:30:04;;;;;;;13.93;10.02;;;947.30;1510.40;;;;;;5083573;28;20047;-76
2021/07/08 07:32:30;;;;;;;14.98;9.68;;;947.40;1484.80;;;;;;5062298;28;20060;-76
2021/07/08 07:34:57;;;;;;;15.40;10.57;;;947.40;1484.80;;;;;;5071409;28;20063;-75
2021/07/08 07:37:23;;;;;;;12.27;9.93;;;947.50;1459.20;;;;;;5071375;28;20051;-76
2021/07/08 07:40:02;;;;;;;9.88;8.73;;;947.70;1459.20;;;;;;5054478;28;20162;-76
2021/07/08 07:42:33;;;;;;;10.20;9.20;;;948.10;1433.60;;;;;;5082760;28;20086;-76
2021/07/08 07:44:59;;;;;;;10.68;9.18;;;972.80;1459.20;;;;;;5060048;28;20025;-75
2021/07/08 07:47:31;;;;;;;11.85;9.52;;;972.90;1433.60;;;;;;5089538;28;20036;-76
2021/07/08 07:50:00;;;;;;;14.02;12.45;;;973.10;1433.60;;;;;;5074873;28;20073;-76
2021/07/08 07:52:44;;;;;;;18.85;10.38;;;973.00;1459.20;;;;;;5060448;28;20063;-76
2021/07/08 07:55:16;;;;;;;12.10;10.23;;;973.20;1433.60;;;;;;5090321;28;20021;-76
2021/07/08 07:57:45;;;;;;;13.90;10.70;;;973.60;1433.60;;;;;;5075687;28;20036;-76
2021/07/08 08:00:36;;;;;;;11.43;9.98;;;998.40;1433.60;;;;;;5076335;28;20024;-76
2021/07/08 08:03:36;;;;;;;11.07;9.25;;;998.40;1408.00;;;;;;5090781;28;20091;-76
2021/07/08 08:08:52;;;;;;;11.70;9.68;;;998.70;1356.80;;;;;;5089998;28;20518;-76
2021/07/08 08:11:26;;;;;;;16.50;11.63;;;998.90;1331.20;;;;;;5074825;28;20020;-76
2021/07/08 08:14:14;;;;;;;11.73;10.43;;;999.20;1331.20;;;;;;5084232;28;20505;-76
2021/07/08 08:16:42;;;;;;;15.45;9.63;;;999.20;1331.20;;;;;;5069292;28;20028;-76
2021/07/08 08:19:08;;;;;;;12.77;8.68;;;1024.00;1254.40;;;;;;5078646;28;20032;-76
2021/07/08 08:21:34;;;;;;;12.23;9.20;;;1024.10;1254.40;;;;;;5084473;28;20029;-76
2021/07/08 08:23:59;;;;;;;11.63;8.82;;;1024.50;1228.80;;;;;;5069943;28;20040;-76
2021/07/08 08:26:28;;;;;;;19.77;10.70;;;1024.60;1203.20;;;;;;5081691;28;20028;-76
2021/07/08 08:28:57;;;;;;;9.77;8.88;;;1024.70;1203.20;;;;;;5062733;28;20037;-76
2021/07/08 08:31:23;;;;;;;10.88;9.70;;;1024.80;1228.80;;;;;;5078619;28;20024;-76
2021/07/08 08:33:49;;;;;;;11.40;9.15;;;1024.90;1228.80;;;;;;5059274;28;20134;-83
2021/07/08 08:36:14;;;;;;;16.55;9.07;;;1049.70;1228.80;;;;;;5062766;28;20091;-84
2021/07/08 08:38:49;;;;;;;14.52;9.30;;;1049.60;1203.20;;;;;;5059500;28;20024;-83
2021/07/08 08:41:15;;;;;;;;;;;1049.60;1203.20;;;;;;5062073;28;20424;-83
2021/07/08 08:43:41;;;;;;;11.07;8.77;;;1049.60;1203.20;;;;;;5077150;28;19983;-84
2021/07/08 08:46:23;;;;;;;9.07;8.25;;;1049.90;1203.20;;;;;;5083284;28;20035;-83
2021/07/08 08:49:03;;;;;;;10.00;8.77;;;1050.10;1177.60;;;;;;5063994;28;20083;-85
2021/07/08 08:51:41;;;;;;;10.50;8.60;;;1050.30;1177.60;;;;;;5074355;28;20118;-85
2021/07/08 08:54:14;;;;;;;9.43;8.50;;;1075.30;1152.00;;;;;;5075070;28;20023;-84
2021/07/08 08:56:58;;;;;;;9.93;8.50;;;1075.60;1126.40;;;;;;5083339;28;20023;-84
2021/07/08 08:59:24;;;;;;;9.77;8.77;;;1075.60;1126.40;;;;;;5093665;28;20030;-84
2021/07/08 09:02:21;;;;;;;8.50;7.70;;;1075.80;1126.40;;;;;;5076688;28;20047;-83
2021/07/08 09:05:49;;;;;;;8.73;7.85;;;1075.80;1075.20;;;;;;5058892;28;20021;-83
2021/07/08 09:08:29;;;;;;;8.38;7.57;;;1076.00;1049.60;;;;;;5068865;28;20032;-82
2021/07/08 09:11:28;;;;;;;10.45;9.45;;;1075.90;1075.20;;;;;;5095685;28;20016;-84
2021/07/08 09:14:08;;;;;;;9.10;8.20;;;1075.90;1075.20;;;;;;5081490;28;20044;-82
2021/07/08 09:16:41;;;;;;;10.48;8.18;;;1100.80;1075.20;;;;;;5077984;28;20017;-84
2021/07/08 09:19:22;;;;;;;7.80;6.97;;;1101.00;1075.20;;;;;;5080853;28;20025;-84
2021/07/08 09:22:01;;;;;;;9.68;8.68;;;1101.30;1075.20;;;;;;5069819;28;20039;-83
2021/07/08 09:24:34;;;;;;;8.43;7.72;;;1101.40;1049.60;;;;;;5086716;28;20073;-83
2021/07/08 09:27:12;;;;;;;10.75;7.75;;;1101.60;1049.60;;;;;;5082754;28;20116;-84
2021/07/08 09:32:30;;;;;;;9.05;8.15;;;1101.70;1049.60;;;;;;5066576;28;20040;-83
2021/07/08 09:34:57;;;;;;;9.95;7.72;;;1126.60;1049.60;;;;;;5066888;28;20484;-83
2021/07/08 09:37:30;;;;;;;9.20;6.40;;;1126.80;1049.60;;;;;;5067209;28;20052;-83
2021/07/08 09:40:10;;;;;;;8.80;6.88;;;1126.70;1024.00;;;;;;5068779;28;20019;-83
2021/07/08 09:42:52;;;;;;;7.95;7.15;;;1126.90;998.40;;;;;;5071935;28;20023;-84
2021/07/08 09:45:23;;;;;;;7.85;6.65;;;1127.30;1024.00;;;;;;5067284;28;20518;-84
2021/07/08 09:48:18;;;;;;;10.52;6.22;;;1152.00;998.40;;;;;;5077894;28;20402;-83
2021/07/08 09:50:50;;;;;;;9.57;6.75;;;1152.00;972.80;;;;;;5069654;28;20391;-82
2021/07/08 09:53:43;;;;;;;8.38;6.45;;;1127.20;998.40;;;;;;5069062;28;20503;-82
2021/07/08 09:59:01;;;;;;;7.38;6.68;;;1152.70;921.60;;;;;;5072010;28;20135;-83
2021/07/08 10:01:33;;;;;;;7.97;6.30;;;1152.00;998.40;;;;;;5059339;28;20074;-84
2021/07/08 10:04:14;;;;;;;9.23;6.20;;;1127.30;972.80;;;;;;5069314;28;20036;-85
2021/07/08 10:06:55;;;;;;;10.75;5.75;;;1152.20;921.60;;;;;;5068592;28;20029;-84
2021/07/08 10:09:32;;;;;;;7.68;5.75;;;1152.20;921.60;;;;;;5065949;28;20024;-84
2021/07/08 10:12:14;;;;;;;8.88;5.80;;;1152.10;921.60;;;;;;5066187;28;20104;-85
2021/07/08 10:14:50;;;;;;;6.72;5.55;;;1152.30;921.60;;;;;;5069174;28;20491;-84
2021/07/08 10:17:24;;;;;;;8.95;5.80;;;1177.60;896.00;;;;;;5067309;28;20124;-84
2021/07/08 10:19:53;;;;;;;10.20;6.43;;;1178.10;896.00;;;;;;5070629;28;20024;-84
2021/07/08 10:22:35;;;;;;;6.50;5.90;;;1178.20;896.00;;;;;;5067172;28;20123;-83
2021/07/08 10:25:24;;;;;;;8.60;5.90;;;1178.10;921.60;;;;;;5066105;28;20341;-84
2021/07/08 10:28:04;;;;;;;9.32;5.70;;;1178.30;896.00;;;;;;5068152;28;20494;-84
2021/07/08 10:31:05;;;;;;;9.20;5.72;;;1178.40;870.40;;;;;;5051929;28;20041;-83
2021/07/08 10:33:31;;;;;;;11.40;6.72;;;1178.40;870.40;;;;;;5066009;28;20112;-84
2021/07/08 10:35:59;;;;;;;6.72;6.03;;;1178.30;896.00;;;;;;5049093;28;20107;-82
2021/07/08 10:39:01;;;;;;;9.65;6.68;;;1177.60;896.00;;;;;;5051056;28;20068;-84
2021/07/08 10:41:49;;;;;;;7.72;6.93;;;1178.10;896.00;;;;;;5046125;28;20219;-84
2021/07/08 10:44:47;;;;;;;9.52;5.85;;;1178.40;870.40;;;;;;5049457;28;20426;-83
2021/07/08 10:47:39;;;;;;;6.32;5.72;;;1178.20;870.40;;;;;;5046055;28;20484;-84
2021/07/08 10:50:25;;;;;;;8.25;6.50;;;1203.30;896.00;;;;;;5050309;28;20025;-84
2021/07/08 10:52:51;;;;;;;9.95;5.80;;;1203.30;896.00;;;;;;5051274;28;20026;-84
2021/07/08 10:55:47;;;;;;;9.60;5.45;;;1203.70;870.40;;;;;;5043565;28;20026;-85
2021/07/08 10:58:37;;;;;;;6.55;5.82;;;1203.70;870.40;;;;;;5061406;28;20048;-85
2021/07/08 11:01:30;;;;;;;6.60;5.75;;;1203.70;870.40;;;;;;5049725;28;20017;-84
2021/07/08 11:04:03;;;;;;;7.03;4.63;;;1203.40;870.40;;;;;;5015591;28;20469;-84
2021/07/08 11:06:41;;;;;;;7.35;6.38;;;1178.40;819.20;;;;;;5046645;28;20086;-83
2021/07/08 11:09:16;;;;;;;7.05;4.97;;;1203.40;844.80;;;;;;5045745;28;20053;-83
2021/07/08 11:11:45;;;;;;;5.55;5.05;;;1203.40;844.80;;;;;;5044510;28;20029;-83
2021/07/08 11:14:12;;;;;;;5.60;5.07;;;1178.30;819.20;;;;;;5046048;28;20037;-84
2021/07/08 11:17:15;;;;;;;7.47;5.78;;;1178.10;844.80;;;;;;5045231;28;20017;-83
2021/07/08 11:19:47;;;;;;;7.40;6.18;;;1178.30;844.80;;;;;;5050965;28;20492;-84
2021/07/08 11:22:33;;;;;;;5.80;5.20;;;1203.30;844.80;;;;;;5053848;28;20017;-84
2021/07/08 11:25:07;;;;;;;6.70;5.18;;;1203.20;870.40;;;;;;5068087;28;20403;-84
2021/07/08 11:27:38;;;;;;;6.75;5.40;;;1203.30;844.80;;;;;;5054082;28;20170;-83
2021/07/08 11:30:16;;;;;;;9.27;5.90;;;1203.30;844.80;;;;;;5069820;28;20077;-84
2021/07/08 11:32:59;;;;;;;6.80;5.53;;;1203.80;844.80;;;;;;5075384;28;20029;-84
2021/07/08 11:35:38;;;;;;;6.93;5.72;;;1203.70;844.80;;;;;;5064019;28;20035;-83
2021/07/08 11:38:17;;;;;;;6.00;5.38;;;1203.70;844.80;;;;;;5078226;28;20056;-83
2021/07/08 11:40:57;;;;;;;6.53;5.80;;;1203.40;844.80;;;;;;5085523;28;20045;-85
2021/07/08 11:43:56;;;;;;;7.07;6.38;;;1178.40;819.20;;;;;;5089005;28;20027;-84
2021/07/08 11:46:22;;;;;;;6.88;6.10;;;1178.30;844.80;;;;;;5093893;28;20078;-85
2021/07/08 11:48:51;;;;;;;7.85;5.90;;;1203.30;844.80;;;;;;5093649;28;20032;-85
2021/07/08 11:51:33;;;;;;;8.93;5.28;;;1178.20;844.80;;;;;;5074026;28;20032;-85
2021/07/08 11:53:59;;;;;;;5.70;5.03;;;1178.40;819.20;;;;;;5083421;28;20115;-81
2021/07/08 11:56:28;;;;;;;11.38;7.18;;;1203.40;844.80;;;;;;5092241;28;20032;-80
2021/07/08 11:59:11;;;;;;;8.15;5.90;;;1203.90;844.80;;;;;;5091184;28;20016;-80
2021/07/08 12:01:40;;;;;;;7.18;5.95;;;1203.80;844.80;;;;;;5071300;28;20038;-81
2021/07/08 12:04:28;;;;;;;6.10;5.50;;;1204.00;819.20;;;;;;5084019;28;20048;-80
2021/07/08 12:06:54;;;;;;;7.30;5.95;;;1228.80;844.80;;;;;;5072478;28;20028;-82
2021/07/08 12:09:25;;;;;;;7.65;5.32;;;1204.00;844.80;;;;;;5091330;28;20103;-81
2021/07/08 12:11:56;;;;;;;8.13;6.40;;;1204.00;819.20;;;;;;5072074;28;20021;-81
2021/07/08 12:14:26;;;;;;;8.02;5.72;;;1203.90;819.20;;;;;;5072983;28;20129;-82
2021/07/08 12:16:55;;;;;;;8.55;5.63;;;1203.70;819.20;;;;;;5075286;28;20020;-81
2021/07/08 12:19:31;;;;;;;7.25;5.70;;;1203.90;819.20;;;;;;5074701;28;20035;-81
2021/07/08 12:22:26;;;;;;;11.55;6.65;;;1229.30;819.20;;;;;;5061648;28;20032;-81
2021/07/08 12:24:54;;;;;;;9.73;6.40;;;1229.40;844.80;;;;;;5067085;28;20115;-81
2021/07/08 12:27:23;;;;;;;6.75;5.65;;;1229.50;819.20;;;;;;5087428;28;20024;-82
2021/07/08 12:29:49;;;;;;;6.85;5.70;;;1229.60;819.20;;;;;;5074644;28;20391;-81
2021/07/08 12:32:33;;;;;;;6.88;5.68;;;1254.50;844.80;;;;;;5073539;28;20028;-82
2021/07/08 12:35:05;;;;;;;7.75;5.80;;;1229.60;819.20;;;;;;5072675;28;20036;-81
2021/07/08 12:37:36;;;;;;;6.10;5.45;;;1254.50;844.80;;;;;;5070452;28;20114;-81
2021/07/08 12:40:23;;;;;;;7.93;6.35;;;1229.60;793.60;;;;;;5086500;28;20035;-82
2021/07/08 12:42:56;;;;;;;7.70;6.28;;;1229.50;819.20;;;;;;5088705;28;20029;-80
2021/07/08 12:45:25;;;;;;;7.10;6.10;;;1229.30;819.20;;;;;;5075053;28;20111;-80
2021/07/08 12:47:54;;;;;;;6.40;5.80;;;1229.60;819.20;;;;;;5088278;28;20379;-79
2021/07/08 12:50:42;;;;;;;6.28;5.40;;;1229.50;819.20;;;;;;5068164;28;20031;-80